Terminal Aerodrome Forecast
Issued by NWS

Current Version | Previous Version | Text Only | Print | Product List | Glossary On
Versions: 1 2 3 4 5 6 7 8 9 10 11 12 13 14 15 16 17 18 19 20 21
000
FTUS44 KMAF 291700 RRA
TAFCNM
TAF
KCNM 291753Z 2918/3018 01011KT P6SM SCT060 BKN120
     FM300900 04013KT 5SM BR SCT020 BKN030 BKN120
      TEMPO 3010/3014 BKN010
     FM301400 01015KT P6SM BKN030=

USA.gov is the U.S. government's official web portal to all federal, state and local government web resources and services.